createdAt,value
2023-05-12T00:00:02.296Z,14.55
2023-05-12T00:02:29.637Z,14.43
2023-05-12T00:04:57.002Z,14.35
2023-05-12T00:07:24.258Z,14.33
2023-05-12T00:09:51.497Z,14.28
2023-05-12T00:12:18.768Z,14.18
2023-05-12T00:14:47.373Z,14.53
2023-05-12T00:17:14.615Z,14.55
2023-05-12T00:19:42.055Z,14.64
2023-05-12T00:22:10.669Z,14.47
2023-05-12T00:24:38.228Z,14.43
2023-05-12T00:27:05.615Z,14.38
2023-05-12T00:29:32.925Z,14.36
2023-05-12T00:32:01.966Z,14.32
2023-05-12T00:34:29.489Z,14.10
2023-05-12T00:36:56.700Z,14.25
2023-05-12T00:39:24.658Z,14.57
2023-05-12T00:41:54.601Z,14.59
2023-05-12T00:44:21.703Z,14.42
2023-05-12T00:46:49.781Z,14.35
2023-05-12T00:49:19.163Z,14.17
2023-05-12T00:51:46.565Z,14.13
2023-05-12T00:54:13.932Z,14.22
2023-05-12T00:56:41.316Z,14.04
2023-05-12T00:59:08.634Z,14.25
2023-05-12T01:01:36.356Z,14.29
2023-05-12T01:04:04.398Z,14.27
2023-05-12T01:06:38.105Z,14.22
2023-05-12T01:09:05.764Z,14.28
2023-05-12T01:11:33.292Z,14.21
2023-05-12T01:14:00.805Z,14.30
2023-05-12T01:16:32.582Z,14.16
2023-05-12T01:19:04.301Z,14.28
2023-05-12T01:21:33.284Z,14.08
2023-05-12T01:24:06.290Z,14.08
2023-05-12T01:26:35.006Z,14.34
2023-05-12T01:29:03.115Z,14.20
2023-05-12T01:31:30.933Z,14.24
2023-05-12T01:34:00.875Z,14.46
2023-05-12T01:36:28.213Z,14.41
2023-05-12T01:38:55.484Z,14.30
2023-05-12T01:41:23.790Z,14.11
2023-05-12T01:43:52.313Z,14.36
2023-05-12T01:46:20.576Z,14.12
2023-05-12T01:48:47.844Z,14.03
2023-05-12T01:51:16.195Z,14.05
2023-05-12T01:53:43.658Z,13.93
2023-05-12T01:56:11.035Z,14.01
2023-05-12T01:58:41.038Z,14.12
2023-05-12T02:01:10.703Z,14.03
2023-05-12T02:03:38.150Z,13.95
2023-05-12T02:06:05.667Z,13.72
2023-05-12T02:08:33.627Z,13.91
2023-05-12T02:11:04.271Z,13.72
2023-05-12T02:13:31.705Z,13.72
2023-05-12T02:15:58.994Z,13.79
2023-05-12T02:18:27.583Z,13.57
2023-05-12T02:20:54.867Z,13.38
2023-05-12T02:23:22.356Z,13.46
2023-05-12T02:25:49.602Z,13.48
2023-05-12T02:28:16.868Z,13.32
2023-05-12T02:30:45.667Z,13.33
2023-05-12T02:33:12.863Z,13.26
2023-05-12T02:35:41.447Z,13.17
2023-05-12T02:38:08.669Z,13.06
2023-05-12T02:40:35.881Z,12.94
2023-05-12T02:43:03.359Z,13.01
2023-05-12T02:45:31.006Z,12.78
2023-05-12T02:47:59.515Z,12.69
2023-05-12T02:50:26.738Z,12.65
2023-05-12T02:52:56.765Z,12.77
2023-05-12T02:55:25.228Z,12.64
2023-05-12T02:57:53.115Z,12.58
2023-05-12T03:00:22.936Z,12.57
2023-05-12T03:02:50.555Z,12.40
2023-05-12T03:05:17.935Z,12.45
2023-05-12T03:07:47.873Z,12.39
2023-05-12T03:10:17.009Z,12.40
2023-05-12T03:12:44.527Z,12.31
2023-05-12T03:15:12.073Z,12.30
2023-05-12T03:17:39.544Z,12.22
2023-05-12T03:20:07.983Z,12.20
2023-05-12T03:22:35.657Z,12.17
2023-05-12T03:25:03.179Z,12.10
2023-05-12T03:27:32.056Z,11.90
2023-05-12T03:29:59.539Z,11.89
2023-05-12T03:32:26.926Z,12.08
2023-05-12T03:34:54.148Z,11.94
2023-05-12T03:37:21.393Z,11.90
2023-05-12T03:39:48.626Z,11.85
2023-05-12T03:42:16.167Z,11.84
2023-05-12T03:44:45.886Z,11.92
2023-05-12T03:47:13.172Z,11.74
2023-05-12T03:49:40.700Z,11.76
2023-05-12T03:52:07.992Z,11.81
2023-05-12T03:54:37.148Z,11.75
2023-05-12T03:57:05.546Z,11.62
2023-05-12T03:59:32.867Z,11.70
2023-05-12T04:02:01.568Z,11.78
2023-05-12T04:04:29.140Z,11.80
2023-05-12T04:06:56.616Z,11.78
2023-05-12T04:09:23.860Z,11.87
2023-05-12T04:11:51.088Z,11.81
2023-05-12T04:14:18.408Z,11.89
2023-05-12T04:16:45.612Z,11.63
2023-05-12T04:19:15.763Z,11.75
2023-05-12T04:21:43.045Z,11.90
2023-05-12T04:24:10.882Z,11.86
2023-05-12T04:26:38.188Z,11.82
2023-05-12T04:29:05.697Z,11.92
2023-05-12T04:31:32.916Z,12.15
2023-05-12T04:34:00.222Z,12.33
2023-05-12T04:36:28.954Z,12.27
2023-05-12T04:38:56.242Z,12.28
2023-05-12T04:41:23.432Z,12.50
2023-05-12T04:46:21.045Z,12.58
2023-05-12T04:48:48.787Z,12.65
2023-05-12T04:51:16.317Z,12.80
2023-05-12T04:53:44.904Z,12.90
2023-05-12T04:56:12.109Z,13.00
2023-05-12T04:58:39.596Z,13.02
2023-05-12T05:01:06.914Z,13.14
2023-05-12T05:03:34.638Z,13.15
2023-05-12T05:06:02.052Z,13.29
2023-05-12T05:08:29.250Z,13.48
2023-05-12T05:10:57.860Z,13.73
2023-05-12T05:13:25.137Z,13.78
2023-05-12T05:15:53.765Z,13.68
2023-05-12T05:18:24.242Z,13.79
2023-05-12T05:20:57.981Z,13.57
2023-05-12T05:23:26.329Z,13.33
2023-05-12T05:25:53.999Z,13.71
2023-05-12T05:28:22.552Z,13.63
2023-05-12T05:30:49.789Z,13.62
2023-05-12T05:33:17.162Z,13.68
2023-05-12T05:35:46.619Z,13.63
2023-05-12T05:38:14.188Z,13.84
2023-05-12T05:40:52.216Z,13.79
2023-05-12T05:43:25.818Z,13.98
2023-05-12T05:45:53.148Z,13.97
2023-05-12T05:48:20.405Z,14.08
2023-05-12T05:50:48.176Z,14.30
2023-05-12T05:53:15.687Z,14.31
2023-05-12T05:55:43.112Z,14.39
2023-05-12T05:58:10.478Z,14.51
2023-05-12T06:00:40.047Z,14.56
2023-05-12T06:03:09.640Z,14.75
2023-05-12T06:05:38.360Z,14.90
2023-05-12T06:08:06.892Z,15.03
2023-05-12T06:10:34.133Z,15.20
2023-05-12T06:13:02.564Z,15.14
2023-05-12T06:15:31.674Z,15.28
2023-05-12T06:18:01.336Z,15.61
2023-05-12T06:20:28.774Z,15.56
2023-05-12T06:22:56.175Z,15.73
2023-05-12T06:25:23.489Z,15.87
2023-05-12T06:27:51.467Z,15.94
2023-05-12T06:30:23.204Z,16.13
2023-05-12T06:32:51.683Z,16.18
2023-05-12T06:35:20.618Z,16.24
2023-05-12T06:37:48.004Z,16.18
2023-05-12T06:40:15.374Z,16.54
2023-05-12T06:42:42.701Z,16.56
2023-05-12T06:45:10.782Z,16.75
2023-05-12T06:47:38.327Z,16.91
2023-05-12T06:50:07.108Z,16.93
2023-05-12T06:52:36.087Z,17.07
2023-05-12T06:55:03.576Z,17.23
2023-05-12T06:57:30.795Z,17.32
2023-05-12T06:59:58.040Z,17.55
2023-05-12T07:02:25.589Z,17.35
2023-05-12T07:04:52.869Z,17.44
2023-05-12T07:07:20.300Z,17.47
2023-05-12T07:09:48.944Z,17.39
2023-05-12T07:12:16.480Z,17.44
2023-05-12T07:14:43.908Z,17.58
2023-05-12T07:17:11.585Z,17.59
2023-05-12T07:19:38.719Z,17.42
2023-05-12T07:22:05.859Z,17.46
2023-05-12T07:24:33.361Z,17.65
2023-05-12T07:27:01.944Z,17.87
2023-05-12T07:29:29.488Z,17.94
2023-05-12T07:31:56.768Z,18.02
2023-05-12T07:34:23.993Z,18.11
2023-05-12T07:36:51.640Z,18.25
2023-05-12T07:39:18.824Z,18.26
2023-05-12T07:41:51.396Z,18.29
2023-05-12T07:44:21.217Z,18.22
2023-05-12T07:46:51.572Z,18.27
2023-05-12T07:49:18.807Z,18.48
2023-05-12T07:51:46.128Z,18.54
2023-05-12T07:54:14.459Z,18.80
2023-05-12T07:56:41.984Z,18.89
2023-05-12T07:59:09.174Z,19.09
2023-05-12T08:01:37.854Z,19.02
2023-05-12T08:04:05.431Z,19.20
2023-05-12T08:06:32.743Z,19.27
2023-05-12T08:09:00.132Z,19.56
2023-05-12T08:11:27.530Z,19.53
2023-05-12T08:13:54.746Z,19.51
2023-05-12T08:16:22.069Z,19.50
2023-05-12T08:18:50.766Z,19.77
2023-05-12T08:21:18.043Z,19.92
2023-05-12T08:23:45.236Z,20.04
2023-05-12T08:26:12.759Z,19.92
2023-05-12T08:28:39.991Z,20.16
2023-05-12T08:31:07.412Z,20.36
2023-05-12T08:33:34.788Z,20.53
2023-05-12T08:36:07.254Z,20.53
2023-05-12T08:38:34.503Z,20.90
2023-05-12T08:41:11.953Z,21.21
2023-05-12T08:43:44.524Z,21.39
2023-05-12T08:46:12.546Z,21.63
2023-05-12T08:48:40.565Z,21.91
2023-05-12T08:51:10.114Z,22.11
2023-05-12T08:53:40.490Z,22.99
2023-05-12T08:58:42.736Z,25.16
2023-05-12T09:01:11.713Z,24.98
2023-05-12T09:03:39.344Z,25.64
2023-05-12T09:06:06.975Z,26.28
2023-05-12T09:08:37.006Z,26.22
2023-05-12T09:11:05.250Z,26.72
2023-05-12T09:13:38.322Z,26.58
2023-05-12T09:16:07.878Z,26.43
2023-05-12T09:18:51.394Z,25.85
2023-05-12T09:21:19.050Z,25.32
2023-05-12T09:23:56.562Z,25.48
2023-05-12T09:26:25.403Z,25.59
2023-05-12T09:28:54.194Z,25.16
2023-05-12T09:31:23.563Z,25.57
2023-05-12T09:33:51.942Z,25.55
2023-05-12T09:36:19.663Z,24.97
2023-05-12T09:38:47.262Z,24.70
2023-05-12T09:41:22.117Z,24.24
2023-05-12T09:43:52.287Z,23.81
2023-05-12T09:46:19.635Z,24.51
2023-05-12T09:48:46.899Z,24.44
2023-05-12T09:51:16.789Z,25.33
2023-05-12T09:53:46.410Z,24.51
2023-05-12T09:56:16.284Z,24.55
2023-05-12T09:58:45.119Z,24.30
2023-05-12T10:01:22.771Z,24.58
2023-05-12T10:03:52.532Z,24.30
2023-05-12T10:06:25.084Z,24.85
2023-05-12T10:08:57.785Z,24.69
2023-05-12T10:11:27.923Z,25.01
2023-05-12T10:13:56.002Z,24.27
2023-05-12T10:16:26.423Z,24.19
2023-05-12T10:18:54.629Z,24.54
2023-05-12T10:21:23.229Z,24.28
2023-05-12T10:23:52.195Z,24.76
2023-05-12T10:26:20.420Z,24.96
2023-05-12T10:28:49.647Z,25.32
2023-05-12T10:31:17.196Z,26.34
2023-05-12T10:33:44.478Z,26.45
2023-05-12T10:36:19.551Z,25.97
2023-05-12T10:38:48.526Z,25.31
2023-05-12T10:41:15.945Z,26.03
2023-05-12T10:43:48.078Z,25.90
2023-05-12T10:46:18.943Z,25.49
2023-05-12T10:48:54.554Z,25.97
2023-05-12T10:51:24.560Z,25.56
2023-05-12T10:53:54.891Z,25.17
2023-05-12T10:56:24.504Z,25.36
2023-05-12T10:59:14.777Z,25.90
2023-05-12T11:02:00.317Z,26.40
2023-05-12T11:04:42.924Z,26.79
2023-05-12T11:07:16.247Z,26.44
2023-05-12T11:09:56.522Z,26.92
2023-05-12T11:12:28.966Z,26.99
2023-05-12T11:14:56.203Z,27.33
2023-05-12T11:17:24.708Z,26.44
2023-05-12T11:19:53.017Z,27.10
2023-05-12T11:22:21.981Z,27.52
2023-05-12T11:24:50.291Z,27.63
2023-05-12T11:27:21.460Z,26.70
2023-05-12T11:29:56.856Z,27.90
2023-05-12T11:32:27.110Z,27.96
2023-05-12T11:34:54.436Z,27.15
2023-05-12T11:37:22.572Z,27.33
2023-05-12T11:39:50.022Z,27.67
2023-05-12T11:42:19.674Z,28.32
2023-05-12T11:44:49.077Z,28.20
2023-05-12T11:47:19.837Z,28.10
2023-05-12T11:49:54.133Z,28.75
2023-05-12T11:52:23.306Z,28.35
2023-05-12T11:54:53.505Z,29.06
2023-05-12T11:57:27.598Z,27.95
2023-05-12T11:59:58.458Z,28.17
2023-05-12T12:02:25.924Z,27.79
2023-05-12T12:04:54.632Z,27.17
2023-05-12T12:07:29.419Z,28.17
2023-05-12T12:09:56.772Z,27.68
2023-05-12T12:12:24.967Z,26.90
2023-05-12T12:14:52.086Z,26.75
2023-05-12T12:17:21.640Z,26.73
2023-05-12T12:19:48.880Z,26.69
2023-05-12T12:22:17.451Z,27.06
2023-05-12T12:24:44.666Z,27.33
2023-05-12T12:27:11.893Z,27.62
2023-05-12T12:29:38.882Z,27.90
2023-05-12T12:32:06.482Z,26.91
2023-05-12T12:34:33.672Z,26.57
2023-05-12T12:37:01.114Z,26.25
2023-05-12T12:39:29.677Z,27.38
2023-05-12T12:41:56.922Z,28.07
2023-05-12T12:44:24.162Z,28.35
2023-05-12T12:46:51.254Z,28.02
2023-05-12T12:49:18.453Z,27.76
2023-05-12T12:51:47.105Z,26.56
2023-05-12T12:54:15.021Z,26.75
2023-05-12T12:56:45.197Z,26.36
2023-05-12T12:59:12.487Z,25.34
2023-05-12T13:01:39.767Z,25.44
2023-05-12T13:04:07.044Z,25.03
2023-05-12T13:06:34.376Z,25.65
2023-05-12T13:09:01.524Z,26.28
2023-05-12T13:11:29.300Z,26.08
2023-05-12T13:13:57.952Z,26.22
2023-05-12T13:16:25.247Z,26.33
2023-05-12T13:18:52.317Z,26.49
2023-05-12T13:21:19.466Z,26.39
2023-05-12T13:23:46.701Z,25.81
2023-05-12T13:26:14.065Z,25.28
2023-05-12T13:28:41.103Z,24.84
2023-05-12T13:31:09.896Z,24.21
2023-05-12T13:33:38.730Z,23.85
2023-05-12T13:36:06.848Z,24.55
2023-05-12T13:38:34.110Z,25.55
2023-05-12T13:41:02.122Z,24.94
2023-05-12T13:43:29.333Z,25.31
2023-05-12T13:45:58.755Z,24.05
2023-05-12T13:48:27.394Z,23.91
2023-05-12T13:50:54.651Z,24.11
2023-05-12T13:53:21.879Z,23.86
2023-05-12T13:55:49.074Z,23.40
2023-05-12T13:58:16.280Z,23.03
2023-05-12T14:00:43.541Z,22.70
2023-05-12T14:03:10.881Z,22.58
2023-05-12T14:05:39.730Z,22.67
2023-05-12T14:08:07.350Z,23.14
2023-05-12T14:10:34.408Z,23.39
2023-05-12T14:13:02.444Z,23.62
2023-05-12T14:15:47.173Z,23.62
2023-05-12T14:18:16.417Z,23.75
2023-05-12T14:20:47.196Z,23.80
2023-05-12T14:23:14.385Z,23.88
2023-05-12T14:25:42.265Z,23.64
2023-05-12T14:28:09.743Z,23.69
2023-05-12T14:30:37.443Z,23.73
2023-05-12T14:33:05.058Z,23.87
2023-05-12T14:35:32.314Z,23.92
2023-05-12T14:38:01.980Z,24.39
2023-05-12T14:40:31.767Z,24.73
2023-05-12T14:42:59.060Z,25.72
2023-05-12T14:45:26.286Z,25.25
2023-05-12T14:47:53.619Z,24.96
2023-05-12T14:50:21.055Z,24.28
2023-05-12T14:52:50.879Z,23.94
2023-05-12T14:55:21.512Z,24.21
2023-05-12T14:57:48.868Z,23.91
2023-05-12T15:00:16.752Z,24.01
2023-05-12T15:02:45.122Z,24.25
2023-05-12T15:05:13.042Z,24.83
2023-05-12T15:07:40.524Z,24.69
2023-05-12T15:10:07.768Z,24.25
2023-05-12T15:12:40.410Z,23.92
2023-05-12T15:15:09.177Z,23.61
2023-05-12T15:17:36.457Z,23.38
2023-05-12T15:20:04.086Z,23.17
2023-05-12T15:22:31.388Z,22.78
2023-05-12T15:24:59.522Z,22.47
2023-05-12T15:27:26.780Z,22.54
2023-05-12T15:29:55.679Z,22.69
2023-05-12T15:32:23.958Z,22.92
2023-05-12T15:34:51.217Z,23.01
2023-05-12T15:37:18.488Z,22.98
2023-05-12T15:39:45.710Z,23.07
2023-05-12T15:42:14.701Z,22.85
2023-05-12T15:44:46.363Z,22.89
2023-05-12T15:47:14.865Z,22.80
2023-05-12T15:49:42.335Z,22.82
2023-05-12T15:52:09.426Z,22.74
2023-05-12T15:54:36.544Z,22.51
2023-05-12T15:57:04.229Z,22.47
2023-05-12T15:59:31.889Z,22.54
2023-05-12T16:02:00.398Z,22.43
2023-05-12T16:04:31.535Z,22.39
2023-05-12T16:06:59.821Z,22.42
2023-05-12T16:09:27.937Z,22.52
2023-05-12T16:11:55.117Z,22.66
2023-05-12T16:14:22.519Z,22.52
2023-05-12T16:16:50.306Z,22.57
2023-05-12T16:19:18.166Z,22.62
2023-05-12T16:21:46.832Z,22.44
2023-05-12T16:24:14.007Z,22.40
2023-05-12T16:26:41.188Z,22.45
2023-05-12T16:31:32.452Z,22.37
2023-05-12T16:34:00.540Z,22.13
2023-05-12T16:36:27.801Z,22.08
2023-05-12T16:38:56.389Z,22.10
2023-05-12T16:41:26.134Z,22.21
2023-05-12T16:43:55.123Z,22.10
2023-05-12T16:46:22.443Z,22.06
2023-05-12T16:48:49.910Z,21.95
2023-05-12T16:51:17.031Z,21.92
2023-05-12T16:53:44.554Z,21.87
2023-05-12T16:56:13.137Z,21.88
2023-05-12T16:58:40.726Z,21.82
2023-05-12T17:01:08.025Z,21.78
2023-05-12T17:03:36.974Z,21.83
2023-05-12T17:06:04.499Z,21.91
2023-05-12T17:08:32.067Z,21.90
2023-05-12T17:10:59.049Z,21.79
2023-05-12T17:13:27.593Z,21.71
2023-05-12T17:15:54.845Z,21.73
2023-05-12T17:18:23.224Z,21.79
2023-05-12T17:20:51.507Z,21.67
2023-05-12T17:23:18.778Z,21.54
2023-05-12T17:25:46.014Z,21.48
2023-05-12T17:28:13.507Z,21.44
2023-05-12T17:30:42.257Z,21.39
2023-05-12T17:33:09.544Z,21.29
2023-05-12T17:35:36.758Z,21.25
2023-05-12T17:38:03.981Z,21.13
2023-05-12T17:40:31.345Z,21.15
2023-05-12T17:42:58.787Z,21.08
2023-05-12T17:45:26.135Z,20.98
2023-05-12T17:47:54.786Z,21.00
2023-05-12T17:50:21.972Z,20.90
2023-05-12T17:52:50.367Z,20.88
2023-05-12T17:55:17.566Z,20.85
2023-05-12T17:57:44.887Z,20.71
2023-05-12T18:00:13.427Z,20.57
2023-05-12T18:02:42.331Z,20.41
2023-05-12T18:05:11.403Z,20.50
2023-05-12T18:07:38.679Z,20.51
2023-05-12T18:10:09.808Z,20.39
2023-05-12T18:12:39.862Z,20.20
2023-05-12T18:15:12.926Z,20.15
2023-05-12T18:17:40.297Z,20.31
2023-05-12T18:20:09.533Z,20.16
2023-05-12T18:22:38.222Z,19.94
2023-05-12T18:25:06.381Z,20.04
2023-05-12T18:27:33.884Z,19.80
2023-05-12T18:30:02.451Z,19.80
2023-05-12T18:32:33.327Z,19.66
2023-05-12T18:35:01.787Z,19.52
2023-05-12T18:37:30.053Z,19.59
2023-05-12T18:39:59.898Z,19.61
2023-05-12T18:42:27.108Z,19.57
2023-05-12T18:44:54.377Z,19.45
2023-05-12T18:47:22.941Z,19.31
2023-05-12T18:49:50.164Z,19.31
2023-05-12T18:52:17.711Z,19.08
2023-05-12T18:54:46.329Z,18.96
2023-05-12T18:57:16.246Z,18.89
2023-05-12T18:59:43.521Z,18.87
2023-05-12T19:02:11.013Z,18.93
2023-05-12T19:04:38.395Z,18.93
2023-05-12T19:07:05.674Z,18.77
2023-05-12T19:09:32.891Z,18.72
2023-05-12T19:12:00.478Z,18.64
2023-05-12T19:14:29.097Z,18.54
2023-05-12T19:16:56.259Z,18.62
2023-05-12T19:19:23.849Z,18.60
2023-05-12T19:21:51.943Z,18.61
2023-05-12T19:24:21.922Z,18.33
2023-05-12T19:26:49.128Z,18.40
2023-05-12T19:29:16.358Z,18.33
2023-05-12T19:31:45.035Z,18.34
2023-05-12T19:34:13.662Z,17.94
2023-05-12T19:36:41.942Z,18.00
2023-05-12T19:39:09.128Z,18.09
2023-05-12T19:41:36.315Z,17.96
2023-05-12T19:44:07.205Z,17.89
2023-05-12T19:46:34.828Z,17.95
2023-05-12T19:49:03.553Z,17.98
2023-05-12T19:51:30.787Z,17.74
2023-05-12T19:53:58.066Z,17.76
2023-05-12T19:56:25.407Z,17.62
2023-05-12T19:58:52.704Z,17.67
2023-05-12T20:01:19.955Z,17.55
2023-05-12T20:03:47.317Z,17.54
2023-05-12T20:06:16.068Z,17.42
2023-05-12T20:08:43.290Z,17.38
2023-05-12T20:11:10.588Z,17.45
2023-05-12T20:13:37.905Z,17.22
2023-05-12T20:16:05.411Z,17.22
2023-05-12T20:18:32.706Z,17.24
2023-05-12T20:20:59.953Z,17.08
2023-05-12T20:23:28.555Z,17.12
2023-05-12T20:25:56.807Z,17.05
2023-05-12T20:28:24.166Z,16.68
2023-05-12T20:30:51.658Z,16.65
2023-05-12T20:33:18.914Z,16.79
2023-05-12T20:35:46.249Z,16.88
2023-05-12T20:38:13.471Z,16.67
2023-05-12T20:40:42.109Z,16.63
2023-05-12T20:43:09.355Z,16.60
2023-05-12T20:45:36.972Z,16.65
2023-05-12T20:48:04.730Z,16.68
2023-05-12T20:50:32.069Z,16.71
2023-05-12T20:52:59.315Z,16.43
2023-05-12T20:55:29.402Z,16.27
2023-05-12T20:57:59.297Z,16.32
2023-05-12T21:00:26.974Z,16.44
2023-05-12T21:02:55.284Z,16.43
2023-05-12T21:05:22.820Z,16.25
2023-05-12T21:07:50.184Z,16.03
2023-05-12T21:10:17.604Z,15.97
2023-05-12T21:12:44.850Z,16.18
2023-05-12T21:15:13.804Z,16.09
2023-05-12T21:17:41.447Z,16.18
2023-05-12T21:20:09.569Z,16.07
2023-05-12T21:22:38.030Z,15.90
2023-05-12T21:25:06.056Z,15.76
2023-05-12T21:27:33.483Z,15.67
2023-05-12T21:30:00.703Z,15.77
2023-05-12T21:32:29.394Z,15.91
2023-05-12T21:34:56.860Z,15.57
2023-05-12T21:37:24.335Z,15.73
2023-05-12T21:39:51.879Z,15.74
2023-05-12T21:42:19.125Z,15.72
2023-05-12T21:44:49.205Z,15.42
2023-05-12T21:47:16.511Z,15.31
2023-05-12T21:49:45.131Z,15.23
2023-05-12T21:52:12.495Z,15.66
2023-05-12T21:54:39.701Z,15.53
2023-05-12T21:57:06.945Z,15.43
2023-05-12T21:59:34.676Z,15.28
2023-05-12T22:02:01.931Z,15.37
2023-05-12T22:04:29.138Z,15.23
2023-05-12T22:06:57.742Z,15.44
2023-05-12T22:09:24.986Z,15.25
2023-05-12T22:11:52.433Z,15.28
2023-05-12T22:14:21.950Z,15.14
2023-05-12T22:16:49.277Z,15.14
2023-05-12T22:19:17.177Z,14.98
2023-05-12T22:21:45.294Z,14.91
2023-05-12T22:24:13.839Z,14.87
2023-05-12T22:26:41.108Z,14.76
2023-05-12T22:29:08.517Z,14.77
2023-05-12T22:31:35.843Z,14.79
2023-05-12T22:34:03.095Z,14.84
2023-05-12T22:36:30.324Z,14.88
2023-05-12T22:39:00.063Z,15.07
2023-05-12T22:41:28.680Z,14.91
2023-05-12T22:43:57.262Z,15.02
2023-05-12T22:46:24.669Z,15.08
2023-05-12T22:48:52.405Z,14.97
2023-05-12T22:51:19.595Z,14.81
2023-05-12T22:53:46.901Z,14.71
2023-05-12T22:56:14.182Z,14.86
2023-05-12T22:58:42.734Z,14.70
2023-05-12T23:01:10.020Z,14.77
2023-05-12T23:03:37.711Z,14.63
2023-05-12T23:06:05.449Z,14.58
2023-05-12T23:08:32.690Z,14.69
2023-05-12T23:10:59.893Z,14.41
2023-05-12T23:13:27.083Z,14.27
2023-05-12T23:15:55.655Z,14.36
2023-05-12T23:18:23.188Z,14.27
2023-05-12T23:20:52.928Z,14.21
2023-05-12T23:23:20.267Z,14.01
2023-05-12T23:25:47.496Z,13.93
2023-05-12T23:28:16.094Z,14.21
2023-05-12T23:30:43.474Z,14.26
2023-05-12T23:33:13.580Z,14.12
2023-05-12T23:35:41.205Z,13.95
2023-05-12T23:38:08.509Z,13.89
2023-05-12T23:40:36.031Z,14.01
2023-05-12T23:43:03.300Z,14.21
2023-05-12T23:45:30.529Z,13.96
2023-05-12T23:47:59.267Z,14.08
2023-05-12T23:50:30.484Z,14.05
2023-05-12T23:52:57.688Z,13.99
2023-05-12T23:55:25.204Z,13.92
2023-05-12T23:57:52.525Z,13.71
